KWLD/WLD METAR and TAF weather

Enter ICAO airport designator
Station Type Date Time Source
KWLD METAR 2021/07/29 01:54 UTC NOAA

KWLD 290154Z AUTO 13005KT 10SM CLR 30/23 A3003 RMK AO2 SLP155 T03000228


Station Type Date Time Source
KWLD Decoded METAR 2021/07/29 01:54 UTC NOAA

STROTHER FIELD, KS, United States (KWLD) 37-10N 97-02W 350M
Jul 28, 2021 - 09:54 PM EDT / 2021.07.29 0154 UTC
Wind: from the SE (130 degrees) at 6 MPH (5 KT):0
Visibility: 10 mile(s):0
Sky conditions: clear
Temperature: 86.0 F (30.0 C)
Heat index: 93.0 F (33.9 C):1
Dew Point: 73.0 F (22.8 C)
Relative Humidity: 65%
Pressure (altimeter): 30.03 in. Hg (1016 hPa)
ob: KWLD 290154Z AUTO 13005KT 10SM CLR 30/23 A3003 RMK AO2 SLP155 T03000228
cycle: 2

Station Type Date Time Source
KWLD TAF UTC NOAA

Error!

Example: see airport list